createdAt,value
2018-07-06T00:02:16.486Z,100860.00
2018-07-06T00:05:03.873Z,100861.00
2018-07-06T00:07:50.428Z,100860.00
2018-07-06T00:10:36.905Z,100858.00
2018-07-06T00:13:23.559Z,100856.00
2018-07-06T00:16:10.418Z,100860.00
2018-07-06T00:18:56.842Z,100866.00
2018-07-06T00:21:43.507Z,100872.00
2018-07-06T00:24:30.035Z,100871.00
2018-07-06T00:27:16.840Z,100872.00
2018-07-06T00:30:03.375Z,100873.00
2018-07-06T00:32:49.739Z,100871.00
2018-07-06T00:35:36.422Z,100879.00
2018-07-06T00:38:22.859Z,100879.00
2018-07-06T00:41:09.693Z,100877.00
2018-07-06T00:43:56.209Z,100883.00
2018-07-06T00:46:43.078Z,100881.00
2018-07-06T00:49:29.805Z,100881.00
2018-07-06T00:52:16.354Z,100880.00
2018-07-06T00:55:03.193Z,100882.00
2018-07-06T00:57:52.702Z,100882.00
2018-07-06T01:00:39.372Z,100889.00
2018-07-06T01:03:26.159Z,100887.00
2018-07-06T01:06:12.967Z,100891.00
2018-07-06T01:09:00.082Z,100890.00
2018-07-06T01:11:46.837Z,100888.00
2018-07-06T01:14:33.308Z,100892.00
2018-07-06T01:17:19.729Z,100893.00
2018-07-06T01:20:06.234Z,100896.00
2018-07-06T01:22:53.170Z,100896.00
2018-07-06T01:25:40.841Z,100903.00
2018-07-06T01:28:27.424Z,100899.00
2018-07-06T01:31:13.923Z,100901.00
2018-07-06T01:34:00.811Z,100905.00
2018-07-06T01:36:48.019Z,100911.00
2018-07-06T01:39:34.727Z,100908.00
2018-07-06T01:42:21.058Z,100913.00
2018-07-06T01:45:08.041Z,100913.00
2018-07-06T01:47:54.952Z,100913.00
2018-07-06T01:50:41.863Z,100918.00
2018-07-06T01:53:28.427Z,100919.00
2018-07-06T01:56:14.805Z,100921.00
2018-07-06T01:59:01.338Z,100930.00
2018-07-06T02:01:47.845Z,100929.00
2018-07-06T02:04:34.234Z,100929.00
2018-07-06T02:07:20.536Z,100932.00
2018-07-06T02:10:06.798Z,100929.00
2018-07-06T02:12:53.374Z,100931.00
2018-07-06T02:15:40.006Z,100929.00
2018-07-06T02:18:26.121Z,100933.00
2018-07-06T02:21:12.907Z,100929.00
2018-07-06T02:23:59.424Z,100928.00
2018-07-06T02:26:45.955Z,100933.00
2018-07-06T02:29:32.674Z,100933.00
2018-07-06T02:32:18.830Z,100931.00
2018-07-06T02:35:05.409Z,100931.00
2018-07-06T02:37:46.019Z,100932.00
2018-07-06T02:40:33.023Z,100933.00
2018-07-06T02:43:19.679Z,100934.00
2018-07-06T02:46:00.224Z,100934.00
2018-07-06T02:48:46.975Z,100932.00
2018-07-06T02:51:33.478Z,100931.00
2018-07-06T02:54:19.637Z,100929.00
2018-07-06T02:57:06.319Z,100933.00
2018-07-06T02:59:52.895Z,100930.00
2018-07-06T03:02:39.409Z,100933.00
2018-07-06T03:05:25.929Z,100937.00
2018-07-06T03:08:12.539Z,100940.00
2018-07-06T03:10:59.350Z,100940.00
2018-07-06T03:13:45.704Z,100942.00
2018-07-06T03:16:32.373Z,100946.00
2018-07-06T03:19:19.045Z,100950.00
2018-07-06T03:22:05.744Z,100949.00
2018-07-06T03:24:52.668Z,100945.00
2018-07-06T03:27:39.289Z,100946.00
2018-07-06T03:30:25.840Z,100947.00
2018-07-06T03:33:12.562Z,100947.00
2018-07-06T03:35:58.980Z,100942.00
2018-07-06T03:38:46.044Z,100953.00
2018-07-06T03:41:32.874Z,100954.00
2018-07-06T03:44:19.478Z,100953.00
2018-07-06T03:47:05.989Z,100956.00
2018-07-06T03:49:52.599Z,100965.00
2018-07-06T03:52:39.424Z,100969.00
2018-07-06T03:55:26.183Z,100972.00
2018-07-06T03:58:12.953Z,100975.00
2018-07-06T04:00:59.660Z,100981.00
2018-07-06T04:03:46.233Z,100988.00
2018-07-06T04:06:33.124Z,100991.00
2018-07-06T04:09:20.030Z,100991.00
2018-07-06T04:12:06.643Z,100990.00
2018-07-06T04:14:53.978Z,101002.00
2018-07-06T04:17:40.649Z,101000.00
2018-07-06T04:20:27.184Z,101000.00
2018-07-06T04:23:13.612Z,101002.00
2018-07-06T04:25:59.952Z,101009.00
2018-07-06T04:28:46.894Z,101013.00
2018-07-06T04:31:33.639Z,101015.00
2018-07-06T04:34:20.285Z,101019.00
2018-07-06T04:37:06.744Z,101022.00
2018-07-06T04:39:53.023Z,101029.00
2018-07-06T04:42:39.633Z,101035.00
2018-07-06T04:45:26.183Z,101034.00
2018-07-06T04:48:13.312Z,101036.00
2018-07-06T04:51:00.093Z,101037.00
2018-07-06T04:53:46.433Z,101037.00
2018-07-06T04:56:32.919Z,101040.00
2018-07-06T04:59:19.403Z,101043.00
2018-07-06T05:02:05.960Z,101047.00
2018-07-06T05:04:52.383Z,101051.00
2018-07-06T05:07:39.313Z,101048.00
2018-07-06T05:10:26.023Z,101049.00
2018-07-06T05:13:12.458Z,101050.00
2018-07-06T05:15:59.474Z,101054.00
2018-07-06T05:18:45.886Z,101061.00
2018-07-06T05:21:32.485Z,101068.00
2018-07-06T05:24:19.387Z,101065.00
2018-07-06T05:27:05.855Z,101062.00
2018-07-06T05:29:52.438Z,101068.00
2018-07-06T05:32:39.628Z,101077.00
2018-07-06T05:35:26.019Z,101076.00
2018-07-06T05:38:12.565Z,101077.00
2018-07-06T05:40:59.144Z,101076.00
2018-07-06T05:43:45.573Z,101080.00
2018-07-06T05:46:32.249Z,101084.00
2018-07-06T05:49:19.024Z,101085.00
2018-07-06T05:52:05.499Z,101083.00
2018-07-06T05:54:52.049Z,101081.00
2018-07-06T05:57:38.401Z,101082.00
2018-07-06T06:00:25.171Z,101079.00
2018-07-06T06:03:11.958Z,101076.00
2018-07-06T06:05:58.753Z,101082.00
2018-07-06T06:08:26.583Z,101087.00
2018-07-06T06:10:56.128Z,101090.00
2018-07-06T06:13:26.268Z,101094.00
2018-07-06T06:15:56.568Z,101099.00
2018-07-06T06:18:26.734Z,101096.00
2018-07-06T06:20:56.964Z,101101.00
2018-07-06T06:23:27.489Z,101103.00
2018-07-06T06:25:57.539Z,101103.00
2018-07-06T06:28:27.805Z,101108.00
2018-07-06T06:30:57.828Z,101113.00
2018-07-06T06:33:28.151Z,101116.00
2018-07-06T06:35:58.069Z,101113.00
2018-07-06T06:38:28.348Z,101122.00
2018-07-06T06:40:58.464Z,101126.00
2018-07-06T06:43:28.798Z,101130.00
2018-07-06T06:45:59.043Z,101133.00
2018-07-06T06:48:29.194Z,101130.00
2018-07-06T06:50:59.184Z,101138.00
2018-07-06T06:53:29.785Z,101132.00
2018-07-06T06:55:59.989Z,101131.00
2018-07-06T06:58:29.980Z,101132.00
2018-07-06T07:01:00.095Z,101132.00
2018-07-06T07:03:30.249Z,101131.00
2018-07-06T07:06:00.594Z,101132.00
2018-07-06T07:08:30.689Z,101136.00
2018-07-06T07:11:00.860Z,101143.00
2018-07-06T07:13:30.776Z,101142.00
2018-07-06T07:16:00.905Z,101148.00
2018-07-06T07:18:31.001Z,101148.00
2018-07-06T07:21:01.910Z,101146.00
2018-07-06T07:23:33.076Z,101147.00
2018-07-06T07:26:04.405Z,101150.00
2018-07-06T07:28:35.217Z,101150.00
2018-07-06T07:31:06.654Z,101157.00
2018-07-06T07:33:37.115Z,101157.00
2018-07-06T07:36:07.385Z,101159.00
2018-07-06T07:38:37.296Z,101153.00
2018-07-06T07:41:07.189Z,101158.00
2018-07-06T07:43:37.209Z,101162.00
2018-07-06T07:46:07.431Z,101163.00
2018-07-06T07:48:37.654Z,101162.00
2018-07-06T07:53:27.239Z,101166.00
2018-07-06T07:55:57.620Z,101164.00
2018-07-06T07:58:27.871Z,101164.00
2018-07-06T08:00:58.098Z,101161.00
2018-07-06T08:03:28.184Z,101164.00
2018-07-06T08:05:58.542Z,101167.00
2018-07-06T08:08:28.202Z,101162.00
2018-07-06T08:10:58.835Z,101156.00
2018-07-06T08:13:29.175Z,101164.00
2018-07-06T08:15:59.376Z,101172.00
2018-07-06T08:18:29.421Z,101173.00
2018-07-06T08:20:59.415Z,101172.00
2018-07-06T08:23:30.846Z,101174.00
2018-07-06T08:26:01.449Z,101174.00
2018-07-06T08:28:32.226Z,101175.00
2018-07-06T08:31:03.345Z,101181.00
2018-07-06T08:33:42.881Z,101179.00
2018-07-06T08:37:28.571Z,101183.00
2018-07-06T08:39:58.985Z,101174.00
2018-07-06T08:42:30.528Z,101180.00
2018-07-06T08:45:01.482Z,101173.00
2018-07-06T08:47:31.206Z,101175.00
2018-07-06T08:50:02.305Z,101177.00
2018-07-06T08:52:32.444Z,101175.00
2018-07-06T08:55:02.645Z,101179.00
2018-07-06T08:57:33.640Z,101180.00
2018-07-06T09:00:04.140Z,101182.00
2018-07-06T09:02:34.385Z,101177.00
2018-07-06T09:05:04.675Z,101181.00
2018-07-06T09:07:34.914Z,101181.00
2018-07-06T09:10:05.247Z,101187.00
2018-07-06T09:12:35.648Z,101188.00
2018-07-06T09:15:07.255Z,101188.00
2018-07-06T09:17:37.561Z,101191.00
2018-07-06T09:20:07.860Z,101190.00
2018-07-06T09:22:37.934Z,101188.00
2018-07-06T09:25:08.594Z,101182.00
2018-07-06T09:27:38.829Z,101184.00
2018-07-06T09:30:09.401Z,101189.00
2018-07-06T09:32:39.655Z,101184.00
2018-07-06T09:35:09.705Z,101186.00
2018-07-06T09:37:39.956Z,101185.00
2018-07-06T09:40:10.622Z,101185.00
2018-07-06T09:42:40.531Z,101188.00
2018-07-06T09:45:10.908Z,101177.00
2018-07-06T09:47:41.115Z,101176.00
2018-07-06T09:50:11.180Z,101179.00
2018-07-06T09:52:41.224Z,101180.00
2018-07-06T09:55:11.056Z,101155.00
2018-07-06T09:57:41.162Z,101178.00
2018-07-06T10:00:15.419Z,101174.00
2018-07-06T10:02:45.929Z,101173.00
2018-07-06T10:05:15.972Z,101176.00
2018-07-06T10:07:46.376Z,101171.00
2018-07-06T10:10:16.695Z,101168.00
2018-07-06T10:12:46.590Z,101172.00
2018-07-06T10:15:16.921Z,101171.00
2018-07-06T10:17:47.075Z,101171.00
2018-07-06T10:20:17.271Z,101169.00
2018-07-06T10:22:47.414Z,101172.00
2018-07-06T10:25:17.582Z,101175.00
2018-07-06T10:28:02.600Z,101177.00
2018-07-06T10:30:44.341Z,101171.00
2018-07-06T10:33:14.403Z,101176.00
2018-07-06T10:35:44.721Z,101184.00
2018-07-06T10:38:14.389Z,101188.00
2018-07-06T10:40:44.415Z,101184.00
2018-07-06T10:43:14.478Z,101169.00
2018-07-06T10:45:44.661Z,101170.00
2018-07-06T10:48:14.809Z,101171.00
2018-07-06T10:50:45.104Z,101169.00
2018-07-06T10:53:15.233Z,101169.00
2018-07-06T10:55:45.325Z,101168.00
2018-07-06T10:58:15.184Z,101164.00
2018-07-06T11:00:45.680Z,101169.00
2018-07-06T11:03:16.044Z,101165.00
2018-07-06T11:05:46.467Z,101165.00
2018-07-06T11:08:16.640Z,101169.00
2018-07-06T11:10:46.700Z,101162.00
2018-07-06T11:13:16.848Z,101161.00
2018-07-06T11:15:46.965Z,101165.00
2018-07-06T11:18:17.159Z,101168.00
2018-07-06T11:20:47.227Z,101168.00
2018-07-06T11:23:17.249Z,101163.00
2018-07-06T11:25:47.763Z,101155.00
2018-07-06T11:28:17.975Z,101165.00
2018-07-06T11:30:48.147Z,101161.00
2018-07-06T11:33:18.293Z,101153.00
2018-07-06T11:35:48.663Z,101159.00
2018-07-06T11:38:18.787Z,101158.00
2018-07-06T11:40:48.858Z,101152.00
2018-07-06T11:43:19.066Z,101154.00
2018-07-06T11:45:49.205Z,101150.00
2018-07-06T11:48:20.401Z,101151.00
2018-07-06T11:50:50.659Z,101148.00
2018-07-06T11:53:21.704Z,101156.00
2018-07-06T11:55:53.105Z,101149.00
2018-07-06T11:58:23.245Z,101152.00
2018-07-06T12:00:53.411Z,101149.00
2018-07-06T12:03:23.525Z,101144.00
2018-07-06T12:05:53.799Z,101151.00
2018-07-06T12:08:24.010Z,101119.00
2018-07-06T12:10:54.088Z,101141.00
2018-07-06T12:13:24.323Z,101150.00
2018-07-06T12:15:54.448Z,101146.00
2018-07-06T12:18:24.740Z,101142.00
2018-07-06T12:20:55.052Z,101146.00
2018-07-06T12:23:25.085Z,101142.00
2018-07-06T12:25:55.347Z,101150.00
2018-07-06T12:28:25.772Z,101139.00
2018-07-06T12:30:55.669Z,101134.00
2018-07-06T12:33:25.790Z,101135.00
2018-07-06T12:35:56.485Z,101138.00
2018-07-06T12:38:26.422Z,101133.00
2018-07-06T12:40:56.402Z,101135.00
2018-07-06T12:43:26.605Z,101139.00
2018-07-06T12:45:56.639Z,101141.00
2018-07-06T12:48:26.925Z,101136.00
2018-07-06T12:50:57.404Z,101135.00
2018-07-06T12:53:27.610Z,101138.00
2018-07-06T12:55:58.196Z,101133.00
2018-07-06T12:58:28.766Z,101122.00
2018-07-06T13:00:59.111Z,101127.00
2018-07-06T13:03:29.213Z,101124.00
2018-07-06T13:05:59.572Z,101130.00
2018-07-06T13:08:29.730Z,101129.00
2018-07-06T13:10:59.957Z,101128.00
2018-07-06T13:13:30.046Z,101134.00
2018-07-06T13:16:00.147Z,101123.00
2018-07-06T13:18:30.551Z,101127.00
2018-07-06T13:21:00.580Z,101131.00
2018-07-06T13:23:31.005Z,101125.00
2018-07-06T13:26:01.805Z,101128.00
2018-07-06T13:30:37.032Z,101118.00
2018-07-06T13:33:07.157Z,101120.00
2018-07-06T13:35:37.476Z,101123.00
2018-07-06T13:38:07.522Z,101131.00
2018-07-06T13:40:38.553Z,101128.00
2018-07-06T13:43:08.916Z,101128.00
2018-07-06T13:45:40.204Z,101133.00
2018-07-06T13:48:11.302Z,101138.00
2018-07-06T13:50:42.692Z,101147.00
2018-07-06T13:53:13.682Z,101145.00
2018-07-06T13:55:44.886Z,101139.00
2018-07-06T13:58:14.997Z,101136.00
2018-07-06T14:00:46.007Z,101138.00
2018-07-06T14:03:16.281Z,101137.00
2018-07-06T14:05:46.405Z,101136.00
2018-07-06T14:08:16.309Z,101134.00
2018-07-06T14:10:46.559Z,101142.00
2018-07-06T14:13:16.949Z,101139.00
2018-07-06T14:15:47.177Z,101146.00
2018-07-06T14:18:17.485Z,101148.00
2018-07-06T14:20:47.782Z,101140.00
2018-07-06T14:23:17.963Z,101144.00
2018-07-06T14:25:48.222Z,101147.00
2018-07-06T14:28:18.356Z,101146.00
2018-07-06T14:30:48.546Z,101144.00
2018-07-06T14:33:18.817Z,101143.00
2018-07-06T14:35:49.129Z,101146.00
2018-07-06T14:38:19.255Z,101144.00
2018-07-06T14:40:49.625Z,101145.00
2018-07-06T14:43:19.510Z,101155.00
2018-07-06T14:45:50.887Z,101149.00
2018-07-06T14:48:21.117Z,101149.00
2018-07-06T14:50:51.237Z,101162.00
2018-07-06T14:53:21.570Z,101157.00
2018-07-06T14:55:52.881Z,101154.00
2018-07-06T14:58:23.461Z,101155.00
2018-07-06T15:10:37.328Z,101154.00
2018-07-06T15:13:07.472Z,101157.00
2018-07-06T15:15:38.366Z,101155.00
2018-07-06T15:18:08.870Z,101162.00
2018-07-06T15:20:39.415Z,101162.00
2018-07-06T15:23:09.992Z,101164.00
2018-07-06T15:25:40.257Z,101168.00
2018-07-06T15:28:10.506Z,101163.00
2018-07-06T15:30:40.606Z,101163.00
2018-07-06T15:33:10.696Z,101167.00
2018-07-06T15:35:40.954Z,101168.00
2018-07-06T15:38:11.124Z,101163.00
2018-07-06T15:40:41.422Z,101168.00
2018-07-06T15:43:13.012Z,101168.00
2018-07-06T15:45:43.599Z,101167.00
2018-07-06T15:48:14.991Z,101164.00
2018-07-06T15:50:45.756Z,101170.00
2018-07-06T15:53:16.548Z,101163.00
2018-07-06T15:55:46.711Z,101165.00
2018-07-06T15:58:16.526Z,101161.00
2018-07-06T16:00:46.672Z,101161.00
2018-07-06T16:03:17.066Z,101159.00
2018-07-06T16:05:47.348Z,101166.00
2018-07-06T16:08:17.432Z,101159.00
2018-07-06T16:10:47.538Z,101165.00
2018-07-06T16:13:17.793Z,101166.00
2018-07-06T16:15:48.048Z,101167.00
2018-07-06T16:18:18.206Z,101171.00
2018-07-06T16:20:48.454Z,101172.00
2018-07-06T16:23:18.687Z,101162.00
2018-07-06T16:25:49.676Z,101168.00
2018-07-06T16:28:20.042Z,101162.00
2018-07-06T16:30:50.040Z,101160.00
2018-07-06T16:33:20.341Z,101162.00
2018-07-06T16:35:50.564Z,101163.00
2018-07-06T16:38:20.629Z,101157.00
2018-07-06T16:40:50.849Z,101161.00
2018-07-06T16:43:21.062Z,101151.00
2018-07-06T16:45:51.255Z,101158.00
2018-07-06T16:48:21.561Z,101167.00
2018-07-06T16:50:51.905Z,101161.00
2018-07-06T16:53:22.027Z,101161.00
2018-07-06T16:55:52.276Z,101166.00
2018-07-06T16:58:22.396Z,101164.00
2018-07-06T17:00:52.553Z,101170.00
2018-07-06T17:03:22.877Z,101165.00
2018-07-06T17:05:53.377Z,101164.00
2018-07-06T17:08:23.797Z,101160.00
2018-07-06T17:10:54.236Z,101165.00
2018-07-06T17:13:24.728Z,101167.00
2018-07-06T17:15:54.771Z,101165.00
2018-07-06T17:18:24.882Z,101169.00
2018-07-06T17:20:55.896Z,101165.00
2018-07-06T17:23:26.698Z,101164.00
2018-07-06T17:25:58.241Z,101170.00
2018-07-06T17:28:29.025Z,101169.00
2018-07-06T17:31:00.621Z,101169.00
2018-07-06T17:33:31.106Z,101166.00
2018-07-06T17:40:39.034Z,101174.00
2018-07-06T17:43:09.192Z,101182.00
2018-07-06T17:45:39.459Z,101174.00
2018-07-06T17:48:09.533Z,101174.00
2018-07-06T17:50:39.728Z,101176.00
2018-07-06T17:53:11.056Z,101172.00
2018-07-06T17:55:41.926Z,101173.00
2018-07-06T17:58:13.300Z,101171.00
2018-07-06T18:00:44.626Z,101175.00
2018-07-06T18:03:15.652Z,101172.00
2018-07-06T18:05:47.844Z,101173.00
2018-07-06T18:08:18.842Z,101173.00
2018-07-06T18:10:49.313Z,101175.00
2018-07-06T18:13:20.145Z,101179.00
2018-07-06T18:15:50.536Z,101177.00
2018-07-06T18:18:20.854Z,101173.00
2018-07-06T18:20:51.046Z,101186.00
2018-07-06T18:23:21.208Z,101187.00
2018-07-06T18:25:51.310Z,101185.00
2018-07-06T18:28:21.640Z,101187.00
2018-07-06T18:30:51.708Z,101188.00
2018-07-06T18:33:21.784Z,101192.00
2018-07-06T18:35:51.885Z,101194.00
2018-07-06T18:38:21.885Z,101195.00
2018-07-06T18:40:52.627Z,101195.00
2018-07-06T18:43:22.730Z,101200.00
2018-07-06T18:45:52.966Z,101198.00
2018-07-06T18:48:23.516Z,101207.00
2018-07-06T18:50:53.802Z,101207.00
2018-07-06T18:53:23.925Z,101205.00
2018-07-06T18:55:54.502Z,101200.00
2018-07-06T18:58:24.712Z,101202.00
2018-07-06T19:00:55.260Z,101203.00
2018-07-06T19:03:25.885Z,101202.00
2018-07-06T19:05:56.456Z,101206.00
2018-07-06T19:08:26.771Z,101210.00
2018-07-06T19:10:57.016Z,101210.00
2018-07-06T19:13:27.078Z,101213.00
2018-07-06T19:15:57.264Z,101213.00
2018-07-06T19:18:27.713Z,101219.00
2018-07-06T19:20:58.129Z,101218.00
2018-07-06T19:23:28.720Z,101224.00
2018-07-06T19:25:58.990Z,101226.00
2018-07-06T19:28:29.348Z,101229.00
2018-07-06T19:30:59.689Z,101231.00
2018-07-06T19:33:30.341Z,101243.00
2018-07-06T19:36:00.743Z,101245.00
2018-07-06T19:38:31.143Z,101246.00
2018-07-06T19:41:01.308Z,101248.00
2018-07-06T19:43:31.705Z,101253.00
2018-07-06T19:46:01.648Z,101254.00
2018-07-06T19:48:31.875Z,101263.00
2018-07-06T19:51:03.097Z,101262.00
2018-07-06T19:53:33.994Z,101271.00
2018-07-06T19:56:05.515Z,101272.00
2018-07-06T19:58:36.381Z,101272.00
2018-07-06T20:01:08.007Z,101276.00
2018-07-06T20:03:38.705Z,101283.00
2018-07-06T20:06:10.252Z,101286.00
2018-07-06T20:08:41.114Z,101281.00
2018-07-06T20:11:12.132Z,101284.00
2018-07-06T20:13:43.217Z,101289.00
2018-07-06T20:16:14.567Z,101291.00
2018-07-06T20:18:45.653Z,101294.00
2018-07-06T20:21:16.830Z,101299.00
2018-07-06T20:23:47.940Z,101302.00
2018-07-06T20:26:19.111Z,101303.00
2018-07-06T20:28:49.944Z,101302.00
2018-07-06T20:31:20.114Z,101308.00
2018-07-06T20:33:50.585Z,101305.00
2018-07-06T20:36:21.052Z,101308.00
2018-07-06T20:38:51.136Z,101306.00
2018-07-06T20:41:21.338Z,101307.00
2018-07-06T20:43:51.598Z,101308.00
2018-07-06T20:46:21.845Z,101311.00
2018-07-06T20:48:52.184Z,101312.00
2018-07-06T20:51:22.417Z,101318.00
2018-07-06T20:53:52.258Z,101318.00
2018-07-06T20:56:22.110Z,101321.00
2018-07-06T20:58:52.701Z,101321.00
2018-07-06T21:01:23.002Z,101317.00
2018-07-06T21:03:53.701Z,101324.00
2018-07-06T21:06:24.175Z,101320.00
2018-07-06T21:08:54.373Z,101329.00
2018-07-06T21:11:24.761Z,101327.00
2018-07-06T21:13:55.263Z,101329.00
2018-07-06T21:16:25.951Z,101330.00
2018-07-06T21:18:56.313Z,101338.00
2018-07-06T21:21:26.482Z,101338.00
2018-07-06T21:23:56.557Z,101340.00
2018-07-06T21:26:26.998Z,101342.00
2018-07-06T21:28:57.186Z,101341.00
2018-07-06T21:31:27.152Z,101345.00
2018-07-06T21:33:57.437Z,101352.00
2018-07-06T21:36:27.697Z,101352.00
2018-07-06T21:38:57.718Z,101354.00
2018-07-06T21:41:28.142Z,101360.00
2018-07-06T21:43:58.381Z,101359.00
2018-07-06T21:46:28.487Z,101362.00
2018-07-06T21:48:58.435Z,101361.00
2018-07-06T21:51:28.448Z,101364.00
2018-07-06T21:53:59.015Z,101370.00
2018-07-06T22:00:37.753Z,101366.00
2018-07-06T22:03:09.532Z,101370.00
2018-07-06T22:05:41.099Z,101371.00
2018-07-06T22:08:11.313Z,101371.00
2018-07-06T22:10:41.437Z,101373.00
2018-07-06T22:13:11.732Z,101370.00
2018-07-06T22:15:45.813Z,101368.00
2018-07-06T22:18:17.591Z,101368.00
2018-07-06T22:20:49.195Z,101371.00
2018-07-06T22:23:19.347Z,101372.00
2018-07-06T22:25:49.796Z,101373.00
2018-07-06T22:28:19.981Z,101370.00
2018-07-06T22:30:50.525Z,101372.00
2018-07-06T22:33:20.692Z,101376.00
2018-07-06T22:35:50.895Z,101373.00
2018-07-06T22:38:21.465Z,101377.00
2018-07-06T22:40:51.695Z,101376.00
2018-07-06T22:43:21.867Z,101378.00
2018-07-06T22:45:52.122Z,101376.00
2018-07-06T22:48:22.197Z,101379.00
2018-07-06T22:50:52.374Z,101374.00
2018-07-06T22:53:22.530Z,101379.00
2018-07-06T22:55:53.457Z,101379.00
2018-07-06T22:58:24.641Z,101378.00
2018-07-06T23:00:55.427Z,101378.00
2018-07-06T23:03:25.510Z,101383.00
2018-07-06T23:05:55.681Z,101392.00
2018-07-06T23:08:25.873Z,101392.00
2018-07-06T23:10:55.887Z,101385.00
2018-07-06T23:13:26.229Z,101389.00
2018-07-06T23:15:56.228Z,101353.00
2018-07-06T23:18:26.657Z,101388.00
2018-07-06T23:20:56.698Z,101392.00
2018-07-06T23:23:26.986Z,101395.00
2018-07-06T23:25:57.121Z,101391.00
2018-07-06T23:28:27.027Z,101394.00
2018-07-06T23:30:57.411Z,101392.00
2018-07-06T23:33:27.771Z,101388.00
2018-07-06T23:35:57.952Z,101394.00
2018-07-06T23:38:28.158Z,101391.00
2018-07-06T23:40:58.428Z,101393.00
2018-07-06T23:43:28.598Z,101390.00
2018-07-06T23:45:58.731Z,101397.00
2018-07-06T23:48:28.961Z,101398.00
2018-07-06T23:50:59.190Z,101393.00
2018-07-06T23:53:29.321Z,101398.00
2018-07-06T23:55:59.617Z,101396.00
2018-07-06T23:58:29.690Z,101401.00
